createdAt,value
2018-03-25T00:05:33.427Z,2.98
2018-03-25T00:11:24.274Z,2.94
2018-03-25T00:17:15.130Z,2.84
2018-03-25T00:23:05.967Z,3.06
2018-03-25T00:28:56.823Z,3.18
2018-03-25T00:34:47.656Z,2.97
2018-03-25T00:40:38.547Z,2.6
2018-03-25T00:46:29.434Z,3.15
2018-03-25T00:52:20.240Z,3.19
2018-03-25T00:58:11.108Z,3.32
2018-03-25T01:04:01.959Z,2.71
2018-03-25T01:09:52.920Z,2.95
2018-03-25T01:15:43.687Z,3.4
2018-03-25T01:21:34.605Z,3.22
2018-03-25T01:27:25.430Z,3.21
2018-03-25T01:33:16.266Z,3.43
2018-03-25T01:39:07.091Z,3.23
2018-03-25T01:44:57.928Z,3.25
2018-03-25T01:50:48.792Z,3.08
2018-03-25T01:56:39.658Z,3.18
2018-03-25T02:02:30.518Z,3.02
2018-03-25T02:08:21.371Z,3.28
2018-03-25T02:14:12.206Z,3.5
2018-03-25T02:20:03.067Z,3.96
2018-03-25T02:25:53.918Z,3.22
2018-03-25T02:31:44.799Z,3.19
2018-03-25T02:37:35.676Z,3.21
2018-03-25T02:43:26.483Z,3.35
2018-03-25T02:49:17.304Z,3.78
2018-03-25T02:55:08.148Z,3.01
2018-03-25T03:00:58.998Z,3.33
2018-03-25T03:06:49.887Z,3.4
2018-03-25T03:12:40.736Z,3.04
2018-03-25T03:18:31.540Z,3.46
2018-03-25T03:24:22.392Z,3.5
2018-03-25T03:30:13.254Z,3.6
2018-03-25T03:36:04.111Z,3.57
2018-03-25T03:41:54.965Z,3.24
2018-03-25T03:47:45.807Z,3.61
2018-03-25T03:53:36.643Z,3.11
2018-03-25T03:59:27.476Z,2.9
2018-03-25T04:05:18.377Z,3.32
2018-03-25T04:11:09.176Z,3.23
2018-03-25T04:17:00.045Z,3.03
2018-03-25T04:22:50.874Z,2.93
2018-03-25T04:28:41.733Z,3.41
2018-03-25T04:34:32.566Z,3.33
2018-03-25T04:40:23.436Z,3.24
2018-03-25T04:46:14.301Z,3.61
2018-03-25T04:52:05.152Z,3.42
2018-03-25T04:57:55.936Z,3.22
2018-03-25T05:03:46.883Z,3.78
2018-03-25T05:09:37.695Z,3.42
2018-03-25T05:15:28.534Z,3.71
2018-03-25T05:21:19.374Z,3.74
2018-03-25T05:27:10.229Z,3.92
2018-03-25T05:33:01.078Z,3.93
2018-03-25T05:38:51.936Z,3.86
2018-03-25T05:44:42.739Z,3.96
2018-03-25T05:50:33.678Z,3.83
2018-03-25T05:56:24.459Z,4.95
2018-03-25T06:02:15.378Z,4.04
2018-03-25T06:08:06.131Z,4.56
2018-03-25T06:13:57.058Z,4.65
2018-03-25T06:19:47.874Z,4.78
2018-03-25T06:25:38.689Z,4.32
2018-03-25T06:31:29.648Z,5.11
2018-03-25T06:37:20.422Z,4.42
2018-03-25T06:43:11.262Z,4.89
2018-03-25T06:49:02.128Z,3.8
2018-03-25T06:54:52.961Z,4.74
2018-03-25T07:00:43.802Z,4.2
2018-03-25T07:06:34.664Z,3.8
2018-03-25T07:12:25.515Z,3.95
2018-03-25T07:18:16.380Z,4.21
2018-03-25T07:24:07.211Z,3.93
2018-03-25T07:29:58.101Z,4.48
2018-03-25T07:35:48.923Z,4
2018-03-25T07:41:39.801Z,5.19
2018-03-25T07:47:30.610Z,4.34
2018-03-25T07:53:21.442Z,4.75
2018-03-25T07:59:12.355Z,4.62
2018-03-25T08:05:03.167Z,4.23
2018-03-25T08:10:54.048Z,4.64
2018-03-25T08:16:44.840Z,3.97
2018-03-25T08:22:35.724Z,4.54
2018-03-25T08:28:26.531Z,4.09
2018-03-25T08:34:17.409Z,4.3
2018-03-25T08:40:08.357Z,4.13
2018-03-25T08:45:59.105Z,4.08
2018-03-25T08:51:50.013Z,4.17
2018-03-25T08:57:40.870Z,4.02
2018-03-25T09:03:31.698Z,4.29
2018-03-25T09:09:22.537Z,3.66
2018-03-25T09:15:13.371Z,3.96
2018-03-25T09:21:04.217Z,3.85
2018-03-25T09:26:55.114Z,4.12
2018-03-25T09:32:45.928Z,4.06
2018-03-25T09:38:36.818Z,3.35
2018-03-25T09:44:27.648Z,3.96
2018-03-25T09:50:18.539Z,3.59
2018-03-25T09:56:09.365Z,3.59
2018-03-25T10:02:00.222Z,3.97
2018-03-25T10:07:51.077Z,3.96
2018-03-25T10:13:41.929Z,3.55
2018-03-25T10:19:32.835Z,3.97
2018-03-25T10:25:23.657Z,4.21
2018-03-25T10:31:14.522Z,3.77
2018-03-25T10:37:05.450Z,3.9
2018-03-25T10:42:56.281Z,4.28
2018-03-25T10:48:47.158Z,3.95
2018-03-25T10:54:37.952Z,3.84
2018-03-25T11:00:28.834Z,4.34
2018-03-25T11:06:19.683Z,4.01
2018-03-25T11:12:10.579Z,3.82
2018-03-25T11:18:01.405Z,3.75
2018-03-25T11:23:52.290Z,4.31
2018-03-25T11:29:43.198Z,4.08
2018-03-25T11:35:34.074Z,4.31
2018-03-25T11:41:24.897Z,4.07
2018-03-25T11:47:15.876Z,4.14
2018-03-25T11:53:06.686Z,3.96
2018-03-25T11:58:57.517Z,4.05
2018-03-25T12:04:48.436Z,4.33
2018-03-25T12:10:39.293Z,3.95
2018-03-25T12:16:30.206Z,4.09
2018-03-25T12:22:21.072Z,3.97
2018-03-25T12:28:11.971Z,4.45
2018-03-25T12:34:02.874Z,4.41
2018-03-25T12:39:53.771Z,4.42
2018-03-25T12:45:44.792Z,4.24
2018-03-25T12:51:35.558Z,4.61
2018-03-25T12:57:26.455Z,4.9
2018-03-25T13:03:17.309Z,4.67
2018-03-25T13:09:08.278Z,4.79
2018-03-25T13:14:59.139Z,5.01
2018-03-25T13:20:50.031Z,4.69
2018-03-25T13:26:40.939Z,4.59
2018-03-25T13:32:31.802Z,4.81
2018-03-25T13:38:22.693Z,4.89
2018-03-25T13:44:13.641Z,5.37
2018-03-25T13:50:04.521Z,5.57
2018-03-25T13:55:55.414Z,5.4
2018-03-25T14:01:46.319Z,5.38
2018-03-25T14:07:37.203Z,6.26
2018-03-25T14:13:28.147Z,5.9
2018-03-25T14:19:19.000Z,6.19
2018-03-25T14:25:09.938Z,5.78
2018-03-25T14:31:00.845Z,6.1
2018-03-25T14:36:51.744Z,6.39
2018-03-25T14:42:42.589Z,6.6
2018-03-25T14:48:33.495Z,6.42
2018-03-25T14:54:24.374Z,6.91
2018-03-25T15:00:15.262Z,6.96
2018-03-25T15:06:06.198Z,6.94
2018-03-25T15:11:57.053Z,6.89
2018-03-25T15:17:47.902Z,7.6
2018-03-25T15:23:38.831Z,6.71
2018-03-25T15:29:29.671Z,6.77
2018-03-25T15:35:20.594Z,7.28
2018-03-25T15:41:11.476Z,6.45
2018-03-25T15:47:02.304Z,6.94
2018-03-25T15:52:53.256Z,6.83
2018-03-25T15:58:44.117Z,6.89
2018-03-25T16:04:34.948Z,7.01
2018-03-25T16:10:25.926Z,7.5
2018-03-25T16:16:16.805Z,7.34
2018-03-25T16:22:07.599Z,7.92
2018-03-25T16:27:58.526Z,7.49
2018-03-25T16:33:49.402Z,7.57
2018-03-25T16:39:40.242Z,7.71
2018-03-25T16:45:31.099Z,7.81
2018-03-25T16:51:21.967Z,7.47
2018-03-25T16:57:12.880Z,6.62
2018-03-25T17:03:03.776Z,7.61
2018-03-25T17:08:54.579Z,7.59
2018-03-25T17:14:45.488Z,7.68
2018-03-25T17:20:36.373Z,7.49
2018-03-25T17:26:27.249Z,8.64
2018-03-25T17:32:18.087Z,8.07
2018-03-25T17:38:08.922Z,7.58
2018-03-25T17:43:59.867Z,6.76
2018-03-25T17:49:50.716Z,6.86
2018-03-25T17:55:41.756Z,8.05
2018-03-25T18:01:32.426Z,7.52
2018-03-25T18:07:23.289Z,6.72
2018-03-25T18:13:14.189Z,7.44
2018-03-25T18:19:05.056Z,7.61
2018-03-25T18:24:55.916Z,7.49
2018-03-25T18:30:46.804Z,7.23
2018-03-25T18:36:37.667Z,8.66
2018-03-25T18:42:28.515Z,7.4
2018-03-25T18:48:19.348Z,9.39
2018-03-25T18:54:10.241Z,7.14
2018-03-25T19:00:01.085Z,7.61
2018-03-25T19:05:52.064Z,7.35
2018-03-25T19:11:42.875Z,8.49
2018-03-25T19:17:33.681Z,7.64
2018-03-25T19:23:24.554Z,8.9
2018-03-25T19:29:15.415Z,8.45
2018-03-25T19:35:06.274Z,7.45
2018-03-25T19:40:57.125Z,9.59
2018-03-25T19:46:47.998Z,9.84
2018-03-25T19:52:38.937Z,10.33
2018-03-25T19:58:29.733Z,9.12
2018-03-25T20:04:20.582Z,9.94
2018-03-25T20:10:11.580Z,9.77
2018-03-25T20:16:02.290Z,8.93
2018-03-25T20:21:53.189Z,8.41
2018-03-25T20:27:44.078Z,8.89
2018-03-25T20:33:34.893Z,8.41
2018-03-25T20:39:25.755Z,9.46
2018-03-25T20:45:16.646Z,8.17
2018-03-25T20:51:08.242Z,9.36
2018-03-25T20:56:58.388Z,9.3
2018-03-25T21:02:49.243Z,8.47
2018-03-25T21:08:40.033Z,8.98
2018-03-25T21:14:30.964Z,9.41
2018-03-25T21:20:21.793Z,7.99
2018-03-25T21:26:12.607Z,8.45
2018-03-25T21:32:03.485Z,7.39
2018-03-25T21:37:54.330Z,8.12
2018-03-25T21:43:45.208Z,7.72
2018-03-25T21:49:36.058Z,8.89
2018-03-25T21:55:26.952Z,8.35
2018-03-25T22:01:17.787Z,8.72
2018-03-25T22:07:08.606Z,7.95
2018-03-25T22:12:59.489Z,8.56
2018-03-25T22:18:50.313Z,8.13
2018-03-25T22:24:41.239Z,8.96
2018-03-25T22:30:32.097Z,8.52
2018-03-25T22:36:22.911Z,8.66
2018-03-25T22:42:13.746Z,7.94
2018-03-25T22:48:04.636Z,8.06
2018-03-25T22:53:55.512Z,7.86
2018-03-25T22:59:46.335Z,7.68
2018-03-25T23:05:37.195Z,7.56
2018-03-25T23:11:28.041Z,8.67
2018-03-25T23:17:18.914Z,8.45
2018-03-25T23:23:09.752Z,8.2
2018-03-25T23:29:00.620Z,8.38
2018-03-25T23:34:51.447Z,8.69
2018-03-25T23:40:42.462Z,8.51
2018-03-25T23:46:33.151Z,8.29
2018-03-25T23:52:24.014Z,8.81
2018-03-25T23:58:14.916Z,8.32
